createdAt,value
2022-10-26T00:00:45.288Z,6.50
2022-10-26T00:03:11.516Z,6.50
2022-10-26T00:05:38.424Z,6.50
2022-10-26T00:08:05.533Z,6.40
2022-10-26T00:10:34.507Z,6.40
2022-10-26T00:13:01.609Z,6.30
2022-10-26T00:15:27.832Z,6.20
2022-10-26T00:17:54.283Z,6.20
2022-10-26T00:20:20.699Z,6.20
2022-10-26T00:22:47.026Z,6.20
2022-10-26T00:25:13.790Z,6.20
2022-10-26T00:27:40.519Z,6.20
2022-10-26T00:30:07.802Z,6.20
2022-10-26T00:32:34.184Z,6.30
2022-10-26T00:35:10.424Z,6.20
2022-10-26T00:37:47.986Z,6.10
2022-10-26T00:40:14.682Z,6.10
2022-10-26T00:42:41.013Z,4.50
2022-10-26T00:45:38.187Z,6.00
2022-10-26T00:48:10.866Z,6.00
2022-10-26T00:50:40.094Z,6.00
2022-10-26T00:53:06.874Z,6.00
2022-10-26T00:55:36.852Z,5.90
2022-10-26T00:58:04.239Z,5.90
2022-10-26T01:00:30.580Z,5.90
2022-10-26T01:02:57.460Z,5.80
2022-10-26T01:05:23.592Z,5.70
2022-10-26T01:07:50.251Z,5.70
2022-10-26T01:10:18.778Z,5.70
2022-10-26T01:12:45.204Z,5.80
2022-10-26T01:15:11.633Z,5.90
2022-10-26T01:26:01.052Z,6.00
2022-10-26T01:31:26.894Z,5.90
2022-10-26T01:35:27.227Z,5.70
2022-10-26T01:37:59.186Z,5.50
2022-10-26T01:42:27.474Z,5.50
2022-10-26T01:44:58.514Z,5.50
2022-10-26T01:47:25.068Z,5.60
2022-10-26T01:49:53.837Z,5.60
2022-10-26T01:52:20.998Z,5.80
2022-10-26T01:54:47.166Z,5.70
2022-10-26T01:57:15.811Z,5.70
2022-10-26T02:00:10.686Z,5.60
2022-10-26T02:03:45.751Z,5.50
2022-10-26T02:09:54.664Z,5.60
2022-10-26T02:13:33.203Z,5.50
2022-10-26T02:18:46.674Z,5.40
2022-10-26T02:21:18.129Z,5.40
2022-10-26T02:23:45.556Z,5.50
2022-10-26T02:26:12.965Z,5.30
2022-10-26T02:28:44.675Z,5.40
2022-10-26T02:31:10.997Z,5.30
2022-10-26T02:33:39.017Z,5.20
2022-10-26T02:36:06.807Z,5.20
2022-10-26T02:38:33.028Z,5.20
2022-10-26T02:40:59.548Z,5.20
2022-10-26T02:43:25.774Z,5.20
2022-10-26T02:45:55.537Z,5.20
2022-10-26T02:48:21.679Z,5.20
2022-10-26T02:51:11.832Z,5.10
2022-10-26T02:53:54.968Z,5.20
2022-10-26T02:56:30.613Z,5.20
2022-10-26T02:59:00.038Z,5.00
2022-10-26T03:01:28.052Z,4.90
2022-10-26T03:03:57.332Z,5.00
2022-10-26T03:06:23.741Z,5.00
2022-10-26T03:08:49.996Z,5.10
2022-10-26T03:11:16.802Z,5.40
2022-10-26T03:13:43.058Z,5.20
2022-10-26T03:16:09.536Z,5.30
2022-10-26T03:18:35.692Z,5.20
2022-10-26T03:21:01.881Z,5.20
2022-10-26T03:23:29.183Z,5.10
2022-10-26T03:25:58.747Z,5.10
2022-10-26T03:28:25.157Z,5.10
2022-10-26T03:30:51.371Z,4.80
2022-10-26T03:33:17.781Z,4.90
2022-10-26T03:35:44.178Z,5.00
2022-10-26T03:38:12.853Z,5.10
2022-10-26T03:40:41.824Z,5.00
2022-10-26T03:43:08.190Z,4.90
2022-10-26T03:45:34.361Z,5.10
2022-10-26T03:48:00.509Z,5.00
2022-10-26T03:50:26.769Z,4.90
2022-10-26T03:52:53.100Z,4.90
2022-10-26T03:55:20.349Z,5.10
2022-10-26T03:57:46.683Z,5.10
2022-10-26T04:00:17.782Z,5.00
2022-10-26T04:02:49.091Z,4.80
2022-10-26T04:05:16.322Z,4.80
2022-10-26T04:07:42.752Z,4.80
2022-10-26T04:10:09.235Z,4.80
2022-10-26T04:12:38.482Z,4.80
2022-10-26T04:15:06.503Z,4.90
2022-10-26T04:17:32.884Z,4.70
2022-10-26T04:19:59.208Z,5.20
2022-10-26T04:22:25.359Z,5.00
2022-10-26T04:24:51.663Z,4.70
2022-10-26T04:27:17.817Z,4.80
2022-10-26T04:29:43.955Z,4.70
2022-10-26T04:32:10.114Z,4.80
2022-10-26T04:34:36.286Z,4.70
2022-10-26T04:37:02.415Z,4.70
2022-10-26T04:39:29.210Z,4.70
2022-10-26T04:41:55.383Z,4.60
2022-10-26T04:44:21.538Z,4.70
2022-10-26T04:46:47.919Z,4.80
2022-10-26T04:49:14.245Z,4.90
2022-10-26T04:51:40.886Z,4.80
2022-10-26T04:54:07.212Z,4.80
2022-10-26T04:56:33.681Z,4.90
2022-10-26T04:59:00.180Z,4.90
2022-10-26T05:01:27.102Z,4.90
2022-10-26T05:03:54.283Z,4.80
2022-10-26T05:06:21.061Z,4.70
2022-10-26T05:08:47.843Z,4.70
2022-10-26T05:11:14.184Z,4.80
2022-10-26T05:13:40.356Z,4.90
2022-10-26T05:16:07.208Z,4.90
2022-10-26T05:18:33.581Z,4.80
2022-10-26T05:20:59.911Z,4.70
2022-10-26T05:23:26.244Z,4.80
2022-10-26T05:25:54.741Z,4.80
2022-10-26T05:28:21.302Z,4.70
2022-10-26T05:30:47.777Z,4.90
2022-10-26T05:33:14.337Z,4.70
2022-10-26T05:35:41.814Z,4.70
2022-10-26T05:38:09.242Z,4.70
2022-10-26T05:40:35.576Z,4.70
2022-10-26T05:43:02.104Z,4.70
2022-10-26T05:45:28.606Z,4.70
2022-10-26T05:47:58.567Z,4.70
2022-10-26T05:50:28.370Z,4.70
2022-10-26T05:52:55.326Z,4.70
2022-10-26T05:55:22.836Z,4.90
2022-10-26T05:57:49.914Z,5.20
2022-10-26T06:00:21.587Z,5.40
2022-10-26T06:04:19.769Z,5.60
2022-10-26T06:06:46.862Z,5.70
2022-10-26T06:09:15.657Z,6.00
2022-10-26T06:11:42.804Z,6.60
2022-10-26T06:14:09.824Z,6.70
2022-10-26T06:17:43.489Z,6.70
2022-10-26T06:26:19.351Z,7.20
2022-10-26T06:38:00.821Z,8.20
2022-10-26T06:40:29.084Z,7.70
2022-10-26T06:42:55.531Z,7.70
2022-10-26T06:45:22.720Z,7.60
2022-10-26T06:48:02.054Z,7.70
2022-10-26T06:50:46.159Z,7.70
2022-10-26T06:55:04.760Z,7.70
2022-10-26T06:57:35.150Z,7.80
2022-10-26T07:00:21.784Z,8.10
2022-10-26T07:02:49.318Z,8.50
2022-10-26T07:05:16.503Z,8.70
2022-10-26T07:07:46.914Z,8.70
2022-10-26T07:10:14.506Z,8.90
2022-10-26T07:12:40.813Z,9.00
2022-10-26T07:17:47.833Z,9.20
2022-10-26T07:20:20.771Z,9.50
2022-10-26T07:22:56.241Z,9.80
2022-10-26T07:25:23.603Z,10.10
2022-10-26T07:27:50.888Z,10.40
2022-10-26T07:30:17.581Z,11.00
2022-10-26T07:32:44.001Z,11.20
2022-10-26T07:35:10.772Z,11.40
2022-10-26T07:37:37.246Z,11.70
2022-10-26T07:40:06.626Z,12.40
2022-10-26T07:42:34.898Z,12.70
2022-10-26T07:45:01.115Z,13.10
2022-10-26T07:47:28.723Z,13.50
2022-10-26T07:49:55.345Z,13.60
2022-10-26T07:52:22.062Z,14.10
2022-10-26T07:54:48.404Z,13.70
2022-10-26T07:57:17.100Z,14.40
2022-10-26T07:59:43.532Z,14.30
2022-10-26T08:02:10.018Z,14.80
2022-10-26T08:04:36.610Z,15.50
2022-10-26T08:07:03.342Z,15.50
2022-10-26T08:09:29.776Z,15.60
2022-10-26T08:11:56.209Z,16.00
2022-10-26T08:14:23.566Z,16.00
2022-10-26T08:16:52.047Z,16.10
2022-10-26T08:19:18.863Z,16.20
2022-10-26T08:21:45.623Z,16.20
2022-10-26T08:24:11.881Z,16.30
2022-10-26T08:26:38.178Z,16.20
2022-10-26T08:29:04.406Z,16.20
2022-10-26T08:31:30.969Z,16.30
2022-10-26T08:33:57.384Z,16.40
2022-10-26T08:36:24.791Z,16.00
2022-10-26T08:38:52.213Z,15.90
2022-10-26T08:41:21.409Z,15.80
2022-10-26T08:43:58.448Z,15.40
2022-10-26T08:46:29.603Z,15.40
2022-10-26T08:49:02.283Z,15.50
2022-10-26T08:51:37.118Z,15.50
2022-10-26T08:55:25.863Z,15.60
2022-10-26T08:57:52.385Z,16.20
2022-10-26T09:00:21.092Z,16.30
2022-10-26T09:02:53.794Z,15.70
2022-10-26T09:05:44.136Z,15.60
2022-10-26T09:09:06.892Z,15.80
2022-10-26T09:13:15.134Z,15.80
2022-10-26T09:19:47.333Z,16.00
2022-10-26T09:23:51.147Z,16.40
2022-10-26T09:26:33.181Z,17.20
2022-10-26T09:29:05.116Z,16.50
2022-10-26T09:31:37.443Z,16.60
2022-10-26T09:34:06.029Z,16.60
2022-10-26T09:36:32.487Z,16.80
2022-10-26T09:39:11.052Z,17.20
2022-10-26T09:41:43.682Z,17.60
2022-10-26T09:44:31.646Z,17.90
2022-10-26T09:47:04.762Z,17.80
2022-10-26T09:51:13.857Z,18.40
2022-10-26T09:53:40.233Z,18.30
2022-10-26T09:56:11.279Z,18.50
2022-10-26T09:58:49.433Z,18.50
2022-10-26T10:01:38.289Z,18.30
2022-10-26T10:04:17.004Z,18.50
2022-10-26T10:06:44.662Z,18.80
2022-10-26T10:09:16.114Z,18.70
2022-10-26T10:11:56.371Z,18.70
2022-10-26T10:14:24.644Z,18.50
2022-10-26T10:17:01.042Z,18.30
2022-10-26T10:19:35.166Z,18.40
2022-10-26T10:22:12.457Z,18.50
2022-10-26T10:24:44.222Z,18.50
2022-10-26T10:27:17.783Z,18.60
2022-10-26T10:29:50.598Z,18.90
2022-10-26T10:32:25.402Z,19.20
2022-10-26T10:34:55.884Z,19.30
2022-10-26T10:37:44.146Z,19.20
2022-10-26T10:40:21.640Z,19.10
2022-10-26T10:42:49.239Z,20.00
2022-10-26T10:45:28.928Z,19.10
2022-10-26T10:48:03.570Z,19.30
2022-10-26T10:50:30.116Z,19.50
2022-10-26T10:53:34.877Z,19.40
2022-10-26T10:59:20.524Z,19.50
2022-10-26T11:02:15.962Z,19.50
2022-10-26T11:07:55.400Z,19.80
2022-10-26T11:10:23.306Z,19.80
2022-10-26T11:12:53.617Z,19.70
2022-10-26T11:15:22.454Z,19.90
2022-10-26T11:19:59.693Z,19.90
2022-10-26T11:22:40.450Z,20.10
2022-10-26T11:25:41.331Z,20.00
2022-10-26T11:30:47.152Z,20.00
2022-10-26T11:33:18.618Z,20.10
2022-10-26T11:36:03.822Z,20.20
2022-10-26T11:38:46.560Z,20.10
2022-10-26T11:42:01.980Z,19.90
2022-10-26T11:46:19.176Z,19.90
2022-10-26T11:49:00.381Z,20.00
2022-10-26T11:51:46.523Z,20.00
2022-10-26T11:55:13.932Z,20.10
2022-10-26T11:57:41.297Z,20.00
2022-10-26T12:00:19.448Z,19.90
2022-10-26T12:03:09.932Z,19.90
2022-10-26T12:05:45.516Z,19.80
2022-10-26T12:09:15.679Z,19.70
2022-10-26T12:13:06.165Z,19.70
2022-10-26T12:16:03.558Z,19.70
2022-10-26T12:21:43.592Z,19.90
2022-10-26T12:24:27.674Z,19.90
2022-10-26T12:27:04.554Z,21.90
2022-10-26T12:30:05.065Z,19.70
2022-10-26T12:32:52.202Z,19.80
2022-10-26T12:35:45.521Z,19.90
2022-10-26T12:39:02.671Z,19.90
2022-10-26T12:41:30.328Z,19.60
2022-10-26T12:43:58.264Z,19.60
2022-10-26T12:46:44.026Z,19.60
2022-10-26T12:50:00.060Z,19.60
2022-10-26T12:52:38.113Z,19.70
2022-10-26T12:59:48.968Z,19.80
2022-10-26T13:03:28.198Z,19.70
2022-10-26T13:07:34.234Z,19.50
2022-10-26T13:10:16.065Z,19.50
2022-10-26T13:12:51.894Z,19.30
2022-10-26T13:15:23.971Z,19.40
2022-10-26T13:18:23.457Z,19.40
2022-10-26T13:21:13.154Z,19.40
2022-10-26T13:23:40.406Z,19.30
2022-10-26T13:26:14.902Z,19.10
2022-10-26T13:28:46.950Z,19.20
2022-10-26T13:32:36.034Z,19.20
2022-10-26T13:35:03.341Z,19.10
2022-10-26T13:37:31.849Z,19.10
2022-10-26T13:39:59.678Z,19.10
2022-10-26T13:42:28.983Z,19.10
2022-10-26T13:45:06.182Z,19.00
2022-10-26T13:47:48.150Z,18.90
2022-10-26T13:50:17.138Z,18.80
2022-10-26T13:52:46.123Z,18.70
2022-10-26T13:55:28.534Z,18.50
2022-10-26T13:58:25.998Z,18.40
2022-10-26T14:02:05.744Z,18.30
2022-10-26T14:04:32.063Z,18.00
2022-10-26T14:06:58.405Z,17.90
2022-10-26T14:09:26.078Z,17.80
2022-10-26T14:11:53.426Z,17.80
2022-10-26T14:14:37.894Z,17.70
2022-10-26T14:17:05.606Z,17.60
2022-10-26T14:19:36.517Z,17.50
2022-10-26T14:22:04.040Z,17.30
2022-10-26T14:24:46.974Z,17.20
2022-10-26T14:27:19.336Z,17.10
2022-10-26T14:30:03.603Z,17.00
2022-10-26T14:32:37.158Z,16.80
2022-10-26T14:35:03.911Z,16.60
2022-10-26T14:37:37.728Z,16.50
2022-10-26T14:40:05.564Z,16.30
2022-10-26T14:42:34.452Z,16.10
2022-10-26T14:45:00.910Z,16.00
2022-10-26T14:47:34.508Z,15.80
2022-10-26T14:52:31.566Z,15.60
2022-10-26T14:55:03.315Z,15.40
2022-10-26T14:57:34.213Z,15.30
2022-10-26T15:00:02.160Z,15.10
2022-10-26T15:02:28.561Z,14.90
2022-10-26T15:05:17.905Z,14.80
2022-10-26T15:07:45.283Z,14.60
2022-10-26T15:11:04.814Z,14.40
2022-10-26T15:13:31.633Z,14.20
2022-10-26T15:16:08.482Z,14.00
2022-10-26T15:18:35.630Z,13.80
2022-10-26T15:21:01.832Z,13.60
2022-10-26T15:23:28.285Z,13.50
2022-10-26T15:25:59.322Z,13.30
2022-10-26T15:28:43.667Z,13.20
2022-10-26T15:31:31.512Z,13.10
2022-10-26T15:34:17.001Z,12.90
2022-10-26T15:36:43.554Z,12.70
2022-10-26T15:39:10.568Z,12.50
2022-10-26T15:41:40.197Z,12.40
2022-10-26T15:44:21.529Z,12.30
2022-10-26T15:46:48.615Z,12.10
2022-10-26T15:49:18.940Z,11.90
2022-10-26T15:51:46.493Z,11.80
2022-10-26T15:54:13.020Z,11.80
2022-10-26T15:56:39.681Z,11.60
2022-10-26T15:59:13.847Z,11.50
2022-10-26T16:01:41.568Z,11.40
2022-10-26T16:04:09.951Z,11.30
2022-10-26T16:06:36.451Z,11.30
2022-10-26T16:09:04.136Z,11.10
2022-10-26T16:11:31.009Z,11.10
2022-10-26T16:14:03.603Z,10.90
2022-10-26T16:16:30.569Z,10.80
2022-10-26T16:19:11.919Z,10.80
2022-10-26T16:21:45.404Z,10.70
2022-10-26T16:24:11.988Z,10.60
2022-10-26T16:26:39.174Z,10.50
2022-10-26T16:29:05.906Z,10.40
2022-10-26T16:31:32.753Z,10.40
2022-10-26T16:34:03.158Z,10.30
2022-10-26T16:36:34.390Z,10.20
2022-10-26T16:41:28.489Z,10.10
2022-10-26T16:43:56.340Z,10.00
2022-10-26T16:46:22.609Z,10.00
2022-10-26T16:48:50.294Z,9.90
2022-10-26T16:51:24.036Z,9.90
2022-10-26T16:53:51.912Z,11.60
2022-10-26T16:56:20.395Z,9.90
2022-10-26T16:58:46.847Z,9.80
2022-10-26T17:01:17.421Z,9.80
2022-10-26T17:03:44.787Z,9.60
2022-10-26T17:06:11.192Z,9.60
2022-10-26T17:08:37.766Z,9.60
2022-10-26T17:11:15.167Z,9.60
2022-10-26T17:13:43.040Z,9.60
2022-10-26T17:16:13.857Z,9.70
2022-10-26T17:18:42.061Z,12.60
2022-10-26T17:21:09.427Z,9.50
2022-10-26T17:23:36.453Z,9.30
2022-10-26T17:26:04.282Z,9.20
2022-10-26T17:28:31.081Z,9.10
2022-10-26T17:31:18.448Z,9.30
2022-10-26T17:33:45.551Z,9.10
2022-10-26T17:36:12.935Z,9.10
2022-10-26T17:38:40.502Z,9.20
2022-10-26T17:41:14.648Z,9.40
2022-10-26T17:43:41.538Z,9.20
2022-10-26T17:46:10.487Z,9.30
2022-10-26T17:48:37.003Z,9.30
2022-10-26T17:51:05.068Z,9.20
2022-10-26T17:53:31.410Z,9.20
2022-10-26T17:56:07.980Z,9.10
2022-10-26T17:58:34.694Z,8.90
2022-10-26T18:01:02.303Z,9.00
2022-10-26T18:03:29.055Z,8.90
2022-10-26T18:05:55.450Z,8.80
2022-10-26T18:08:22.188Z,8.60
2022-10-26T18:10:54.148Z,8.70
2022-10-26T18:13:22.289Z,8.70
2022-10-26T18:15:52.370Z,8.70
2022-10-26T18:18:19.538Z,8.60
2022-10-26T18:20:46.125Z,8.60
2022-10-26T18:23:14.084Z,8.50
2022-10-26T18:25:40.618Z,8.40
2022-10-26T18:28:08.617Z,8.40
2022-10-26T18:30:35.364Z,8.40
2022-10-26T18:33:04.318Z,8.30
2022-10-26T18:35:32.542Z,8.30
2022-10-26T18:38:00.309Z,8.20
2022-10-26T18:40:26.996Z,8.30
2022-10-26T18:42:53.597Z,8.50
2022-10-26T18:45:19.961Z,8.50
2022-10-26T18:47:48.071Z,8.40
2022-10-26T18:50:16.467Z,8.40
2022-10-26T18:52:45.365Z,8.30
2022-10-26T18:55:13.935Z,8.20
2022-10-26T18:57:40.632Z,8.10
2022-10-26T19:00:09.619Z,8.00
2022-10-26T19:02:36.574Z,7.90
2022-10-26T19:05:02.923Z,7.80
2022-10-26T19:07:30.822Z,7.90
2022-10-26T19:10:00.888Z,7.90
2022-10-26T19:12:27.613Z,7.90
2022-10-26T19:14:54.904Z,7.90
2022-10-26T19:17:23.261Z,7.80
2022-10-26T19:19:49.611Z,7.80
2022-10-26T19:22:17.060Z,7.80
2022-10-26T19:24:46.921Z,7.80
2022-10-26T19:27:13.690Z,7.70
2022-10-26T19:29:40.629Z,7.70
2022-10-26T19:32:07.310Z,7.60
2022-10-26T19:34:34.732Z,7.60
2022-10-26T19:37:01.519Z,7.70
2022-10-26T19:39:28.912Z,7.80
2022-10-26T19:41:55.657Z,7.70
2022-10-26T19:44:25.318Z,7.50
2022-10-26T19:46:52.723Z,7.40
2022-10-26T19:49:19.074Z,7.30
2022-10-26T19:51:47.980Z,7.40
2022-10-26T19:54:14.269Z,7.40
2022-10-26T19:56:41.006Z,7.40
2022-10-26T19:59:08.684Z,7.40
2022-10-26T20:01:35.210Z,7.40
2022-10-26T20:04:02.400Z,7.40
2022-10-26T20:06:30.200Z,7.30
2022-10-26T20:08:56.547Z,7.30
2022-10-26T20:11:22.891Z,7.40
2022-10-26T20:13:49.716Z,7.40
2022-10-26T20:16:16.572Z,7.40
2022-10-26T20:18:47.712Z,7.50
2022-10-26T20:21:15.388Z,7.40
2022-10-26T20:23:42.087Z,7.60
2022-10-26T20:26:08.646Z,7.80
2022-10-26T20:28:35.694Z,7.80
2022-10-26T20:31:02.601Z,7.80
2022-10-26T20:33:29.056Z,7.80
2022-10-26T20:35:58.793Z,7.80
2022-10-26T20:38:25.977Z,7.70
2022-10-26T20:40:56.875Z,7.50
2022-10-26T20:43:24.254Z,7.40
2022-10-26T20:45:52.516Z,7.30
2022-10-26T20:48:20.070Z,7.20
2022-10-26T20:51:00.298Z,7.20
2022-10-26T20:53:34.312Z,7.10
2022-10-26T20:56:02.725Z,10.20
2022-10-26T20:58:42.211Z,7.10
2022-10-26T21:01:49.987Z,7.00
2022-10-26T21:04:16.827Z,6.90
2022-10-26T21:06:43.021Z,6.90
2022-10-26T21:09:09.742Z,6.90
2022-10-26T21:11:37.200Z,6.90
2022-10-26T21:14:04.855Z,6.80
2022-10-26T21:16:31.106Z,6.90
2022-10-26T21:19:00.754Z,6.80
2022-10-26T21:21:27.532Z,6.80
2022-10-26T21:23:54.378Z,6.80
2022-10-26T21:26:21.214Z,6.80
2022-10-26T21:28:48.333Z,6.80
2022-10-26T21:31:16.759Z,6.80
2022-10-26T21:33:45.214Z,6.70
2022-10-26T21:36:11.853Z,6.70
2022-10-26T21:38:38.369Z,6.60
2022-10-26T21:41:18.293Z,6.60
2022-10-26T21:43:46.823Z,6.70
2022-10-26T21:46:13.457Z,6.70
2022-10-26T21:48:40.536Z,6.70
2022-10-26T21:51:10.025Z,6.90
2022-10-26T21:53:37.324Z,6.90
2022-10-26T21:56:05.969Z,6.90
2022-10-26T21:58:32.597Z,6.80
2022-10-26T22:01:09.244Z,6.80
2022-10-26T22:03:35.751Z,6.80
2022-10-26T22:06:02.148Z,6.80
2022-10-26T22:08:28.960Z,6.70
2022-10-26T22:10:55.599Z,6.70
2022-10-26T22:13:21.823Z,6.70
2022-10-26T22:15:48.137Z,6.70
2022-10-26T22:18:14.581Z,6.70
2022-10-26T22:20:40.827Z,8.20
2022-10-26T22:23:08.260Z,6.60
2022-10-26T22:25:35.440Z,6.70
2022-10-26T22:28:02.080Z,6.60
2022-10-26T22:30:28.283Z,6.70
2022-10-26T22:32:54.497Z,6.60
2022-10-26T22:35:36.085Z,6.60
2022-10-26T22:38:02.337Z,6.70
2022-10-26T22:40:29.482Z,6.80
2022-10-26T22:42:55.727Z,6.90
2022-10-26T22:45:22.078Z,6.90
2022-10-26T22:47:48.290Z,6.90
2022-10-26T22:50:14.456Z,6.80
2022-10-26T22:52:40.746Z,6.80
2022-10-26T22:55:07.681Z,6.80
2022-10-26T22:57:34.073Z,6.90
2022-10-26T23:00:00.238Z,7.10
2022-10-26T23:02:26.922Z,7.20
2022-10-26T23:04:53.104Z,7.30
2022-10-26T23:07:20.240Z,7.40
2022-10-26T23:09:46.433Z,7.40
2022-10-26T23:12:12.643Z,7.60
2022-10-26T23:14:38.898Z,7.60
2022-10-26T23:17:07.406Z,7.80
2022-10-26T23:19:33.539Z,7.90
2022-10-26T23:21:59.889Z,7.90
2022-10-26T23:24:26.910Z,7.90
2022-10-26T23:26:53.088Z,8.00
2022-10-26T23:29:20.272Z,8.20
2022-10-26T23:31:46.431Z,8.20
2022-10-26T23:34:13.009Z,8.20
2022-10-26T23:36:39.632Z,8.20
2022-10-26T23:39:05.892Z,8.30
2022-10-26T23:41:32.119Z,8.30
2022-10-26T23:43:58.372Z,8.30
2022-10-26T23:48:51.311Z,8.30
2022-10-26T23:51:17.646Z,8.30
2022-10-26T23:53:43.846Z,8.30
2022-10-26T23:56:10.100Z,8.20
2022-10-26T23:58:36.322Z,8.30
